Time;durP1;ratioP1;P1;durP2;ratioP2;P2;SDS_P1;SDS_P2;PMS_P1;PMS_P2;Temp;Humidity;BMP_temperature;BMP_pressure;BME280_temperature;BME280_humidity;BME280_pressure;Samples;Min_cycle;Max_cycle;Signal;HPM_P1;HPM_P2
2022/07/22 00:02:11;;;;;;;8.70;6.28;;;22.90;1.00;;;;;;5091545;28;20020;-75
2022/07/22 00:04:37;;;;;;;7.07;6.30;;;22.90;1.00;;;;;;5091769;28;20111;-74
2022/07/22 00:07:03;;;;;;;6.38;5.82;;;23.10;1.00;;;;;;5091692;28;20039;-75
2022/07/22 00:09:29;;;;;;;7.03;6.32;;;23.10;1.00;;;;;;5093663;28;20032;-75
2022/07/22 00:11:56;;;;;;;9.93;6.65;;;23.10;1.00;;;;;;5091074;28;20035;-76
2022/07/22 00:14:21;;;;;;;6.70;6.10;;;23.10;1.00;;;;;;5091505;28;20024;-76
2022/07/22 00:16:47;;;;;;;8.63;6.10;;;23.00;1.00;;;;;;5090026;28;20031;-75
2022/07/22 00:19:19;;;;;;;7.40;6.60;;;22.90;1.00;;;;;;5091670;28;20495;-76
2022/07/22 00:21:45;;;;;;;9.38;6.50;;;22.90;1.00;;;;;;5092488;28;20028;-77
2022/07/22 00:24:11;;;;;;;6.97;6.40;;;22.90;1.00;;;;;;5092287;28;20026;-74
2022/07/22 00:26:37;;;;;;;6.78;6.10;;;22.70;1.00;;;;;;5090398;28;20071;-75
2022/07/22 00:29:03;;;;;;;7.18;6.47;;;22.70;1.00;;;;;;5090722;28;20067;-75
2022/07/22 00:31:30;;;;;;;7.35;6.40;;;22.70;1.00;;;;;;5090826;28;20121;-76
2022/07/22 00:33:56;;;;;;;9.27;6.85;;;22.70;1.00;;;;;;5091210;28;20419;-76
2022/07/22 00:36:23;;;;;;;8.82;6.25;;;22.60;1.00;;;;;;5092967;28;20016;-75
2022/07/22 00:38:49;;;;;;;7.82;6.40;;;22.50;1.00;;;;;;5090668;28;20032;-74
2022/07/22 00:41:15;;;;;;;10.15;6.50;;;22.60;1.00;;;;;;5090739;28;20034;-74
2022/07/22 00:44:05;;;;;;;7.40;6.70;;;22.50;1.00;;;;;;5090877;28;20027;-74
2022/07/22 00:46:35;;;;;;;7.35;6.70;;;22.70;1.00;;;;;;5090785;28;20727;-76
2022/07/22 00:49:05;;;;;;;8.63;6.50;;;22.50;1.00;;;;;;5091089;28;20031;-74
2022/07/22 00:51:32;;;;;;;7.18;6.35;;;22.50;1.00;;;;;;5092386;28;20097;-75
2022/07/22 00:53:59;;;;;;;8.15;6.95;;;22.50;1.00;;;;;;5072317;28;20028;-77
2022/07/22 00:56:26;;;;;;;7.65;6.80;;;22.50;1.00;;;;;;5090353;28;20093;-77
2022/07/22 00:58:54;;;;;;;8.30;6.72;;;22.30;1.00;;;;;;5090747;28;20055;-76
2022/07/22 01:01:20;;;;;;;7.65;6.68;;;22.50;1.00;;;;;;5090625;28;20500;-77
2022/07/22 01:03:46;;;;;;;9.20;7.13;;;22.50;1.00;;;;;;5091920;28;20032;-74
2022/07/22 01:06:11;;;;;;;7.40;6.72;;;22.30;1.00;;;;;;5091352;28;20077;-76
2022/07/22 01:08:38;;;;;;;8.20;7.40;;;22.20;1.00;;;;;;5090518;28;20032;-77
2022/07/22 01:11:11;;;;;;;7.45;6.70;;;22.20;1.00;;;;;;5090030;28;20106;-77
2022/07/22 01:13:37;;;;;;;7.65;6.57;;;22.10;1.00;;;;;;5090411;28;20016;-77
2022/07/22 01:16:05;;;;;;;7.70;7.00;;;22.00;1.00;;;;;;5090229;28;20757;-76
2022/07/22 01:18:30;;;;;;;8.57;7.07;;;22.10;1.00;;;;;;5092589;28;20024;-77
2022/07/22 01:20:56;;;;;;;7.90;7.25;;;22.10;1.00;;;;;;5090329;28;20107;-76
2022/07/22 01:23:22;;;;;;;7.97;6.20;;;22.10;1.00;;;;;;5090035;28;20028;-76
2022/07/22 01:25:47;;;;;;;7.43;6.82;;;22.00;1.00;;;;;;5090208;28;20035;-77
2022/07/22 01:28:13;;;;;;;7.65;6.63;;;22.10;1.00;;;;;;5089935;28;20032;-77
2022/07/22 01:30:39;;;;;;;9.77;7.80;;;22.20;1.00;;;;;;5091608;28;20035;-76
2022/07/22 01:33:04;;;;;;;8.40;7.10;;;22.10;1.00;;;;;;5090947;28;20027;-76
2022/07/22 01:35:30;;;;;;;7.82;7.03;;;22.10;1.00;;;;;;5088771;28;20032;-76
2022/07/22 01:37:55;;;;;;;9.35;6.80;;;21.80;1.00;;;;;;5089909;28;20115;-76
2022/07/22 01:40:21;;;;;;;8.75;7.30;;;21.80;1.00;;;;;;5090312;28;20028;-77
2022/07/22 01:42:47;;;;;;;7.40;6.70;;;21.90;1.00;;;;;;5090734;28;20409;-77
2022/07/22 01:45:13;;;;;;;8.10;7.30;;;21.80;1.00;;;;;;5091222;28;20399;-76
2022/07/22 01:47:38;;;;;;;8.18;7.03;;;21.70;1.00;;;;;;5089693;28;20028;-76
2022/07/22 01:50:07;;;;;;;7.32;6.72;;;21.50;1.00;;;;;;5090235;28;20468;-77
2022/07/22 01:52:33;;;;;;;9.40;7.20;;;21.50;1.00;;;;;;5094613;28;20492;-77
2022/07/22 01:54:59;;;;;;;7.72;6.93;;;21.60;1.00;;;;;;5096710;28;20047;-77
2022/07/22 01:57:24;;;;;;;8.90;7.00;;;21.50;1.00;;;;;;5098695;28;20052;-77
2022/07/22 01:59:50;;;;;;;8.07;7.38;;;21.50;1.00;;;;;;5096590;28;20110;-76
2022/07/22 02:02:16;;;;;;;8.40;7.50;;;21.50;1.00;;;;;;5096305;28;20039;-76
2022/07/22 02:04:41;;;;;;;9.00;7.10;;;21.50;1.00;;;;;;5096502;28;20028;-77
2022/07/22 02:07:07;;;;;;;8.43;7.03;;;21.70;1.00;;;;;;5096169;28;20054;-76
2022/07/22 02:09:33;;;;;;;8.32;7.50;;;21.70;1.00;;;;;;5098489;28;20488;-76
2022/07/22 02:11:58;;;;;;;8.05;7.03;;;21.60;1.00;;;;;;5096342;28;20051;-77
2022/07/22 02:14:24;;;;;;;8.15;7.32;;;21.70;1.00;;;;;;5095003;28;20115;-76
2022/07/22 02:16:49;;;;;;;8.43;7.50;;;21.70;1.00;;;;;;5096438;28;20017;-76
2022/07/22 02:19:15;;;;;;;8.55;7.68;;;21.60;1.00;;;;;;5096540;28;20031;-75
2022/07/22 02:21:41;;;;;;;9.13;7.53;;;21.60;1.00;;;;;;5097568;28;20028;-76
2022/07/22 02:24:06;;;;;;;8.18;7.38;;;21.50;1.00;;;;;;5097250;28;20484;-77
2022/07/22 02:26:32;;;;;;;8.90;8.10;;;21.50;1.00;;;;;;5097091;28;20106;-77
2022/07/22 02:28:58;;;;;;;8.15;7.25;;;21.50;1.00;;;;;;5096019;28;20040;-77
2022/07/22 02:31:23;;;;;;;9.48;7.30;;;21.50;1.00;;;;;;5096209;28;20047;-76
2022/07/22 02:33:49;;;;;;;8.90;7.35;;;21.40;1.00;;;;;;5097167;28;20020;-77
2022/07/22 02:36:15;;;;;;;8.85;7.40;;;21.40;1.00;;;;;;5097347;28;20101;-76
2022/07/22 02:38:40;;;;;;;7.53;6.82;;;21.30;1.00;;;;;;5096269;28;20028;-76
2022/07/22 02:41:07;;;;;;;8.27;7.30;;;21.40;1.00;;;;;;5095853;28;20393;-76
2022/07/22 02:43:33;;;;;;;8.73;7.40;;;21.40;1.00;;;;;;5096662;28;20073;-77
2022/07/22 02:45:58;;;;;;;8.30;7.05;;;21.30;1.00;;;;;;5096074;28;20081;-76
2022/07/22 02:48:24;;;;;;;8.90;7.53;;;21.20;1.00;;;;;;5098122;28;20027;-76
2022/07/22 02:50:50;;;;;;;9.90;7.55;;;21.20;1.00;;;;;;5095596;28;20038;-76
2022/07/22 02:53:15;;;;;;;10.80;7.68;;;21.20;1.00;;;;;;5094521;28;20023;-76
2022/07/22 02:55:41;;;;;;;8.20;7.40;;;20.90;1.00;;;;;;5095883;28;20024;-77
2022/07/22 02:58:08;;;;;;;8.30;7.50;;;20.80;1.00;;;;;;5096520;28;20048;-76
2022/07/22 03:00:35;;;;;;;11.25;7.55;;;20.80;1.00;;;;;;5093670;28;20084;-76
2022/07/22 03:03:00;;;;;;;7.78;7.03;;;20.80;1.00;;;;;;5093815;28;20104;-76
2022/07/22 03:05:26;;;;;;;10.77;8.00;;;20.80;1.00;;;;;;5090957;28;20032;-76
2022/07/22 03:07:52;;;;;;;8.60;7.70;;;20.70;1.00;;;;;;5092656;28;20114;-76
2022/07/22 03:10:17;;;;;;;9.38;7.50;;;20.80;1.00;;;;;;5092681;28;20084;-76
2022/07/22 03:12:43;;;;;;;8.55;7.30;;;20.90;1.00;;;;;;5093988;28;20103;-77
2022/07/22 03:15:09;;;;;;;10.48;7.32;;;20.90;1.00;;;;;;5093627;28;20452;-76
2022/07/22 03:17:36;;;;;;;8.60;7.68;;;20.80;1.00;;;;;;5092556;28;20043;-76
2022/07/22 03:20:06;;;;;;;8.40;7.60;;;20.90;1.00;;;;;;5092017;28;20154;-76
2022/07/22 03:22:32;;;;;;;8.70;7.78;;;20.80;1.00;;;;;;5092434;28;20023;-76
2022/07/22 03:24:58;;;;;;;8.68;7.68;;;20.90;1.00;;;;;;5092225;28;20032;-76
2022/07/22 03:27:24;;;;;;;9.25;7.93;;;20.80;1.00;;;;;;5094856;28;20443;-75
2022/07/22 03:29:49;;;;;;;8.63;7.82;;;20.80;1.00;;;;;;5092157;28;20043;-77
2022/07/22 03:32:15;;;;;;;9.73;7.55;;;20.60;1.00;;;;;;5090860;28;20031;-76
2022/07/22 03:34:41;;;;;;;8.52;7.63;;;20.50;1.00;;;;;;5091841;28;20551;-76
2022/07/22 03:37:07;;;;;;;8.48;7.68;;;20.40;1.00;;;;;;5092570;28;20504;-76
2022/07/22 03:39:32;;;;;;;9.48;7.82;;;20.50;1.00;;;;;;5094766;28;20024;-76
2022/07/22 03:41:58;;;;;;;9.13;8.07;;;20.20;1.00;;;;;;5091872;28;20031;-77
2022/07/22 03:44:24;;;;;;;8.38;7.40;;;20.30;1.00;;;;;;5091029;28;20075;-75
2022/07/22 03:46:49;;;;;;;8.43;7.63;;;20.40;1.00;;;;;;5091937;28;20097;-77
2022/07/22 03:49:15;;;;;;;10.35;7.70;;;20.50;1.00;;;;;;5091685;28;20109;-76
2022/07/22 03:51:41;;;;;;;8.80;7.70;;;20.40;1.00;;;;;;5092951;28;20032;-78
2022/07/22 03:54:06;;;;;;;9.13;7.97;;;20.60;1.00;;;;;;5092571;28;20031;-79
2022/07/22 03:56:32;;;;;;;8.73;7.75;;;20.40;1.00;;;;;;5091640;28;20020;-79
2022/07/22 03:58:57;;;;;;;9.18;7.78;;;20.40;1.00;;;;;;5091977;28;20479;-79
2022/07/22 04:01:23;;;;;;;10.00;7.47;;;20.40;1.00;;;;;;5091600;28;20101;-80
2022/07/22 04:03:49;;;;;;;7.90;7.22;;;20.30;1.00;;;;;;5091696;28;20125;-79
2022/07/22 04:06:15;;;;;;;9.55;7.60;;;20.30;1.00;;;;;;5092929;28;20189;-80
2022/07/22 04:08:41;;;;;;;9.43;7.20;;;20.30;1.00;;;;;;5091353;28;20438;-80
2022/07/22 04:11:06;;;;;;;9.38;8.00;;;20.40;1.00;;;;;;5090602;28;20425;-80
2022/07/22 04:13:32;;;;;;;9.38;8.50;;;20.20;1.00;;;;;;5091397;28;20020;-80
2022/07/22 04:15:58;;;;;;;9.00;7.70;;;20.10;1.00;;;;;;5091459;28;20033;-79
2022/07/22 04:18:24;;;;;;;10.35;7.80;;;20.00;1.00;;;;;;5093125;28;20032;-78
2022/07/22 04:20:50;;;;;;;11.50;8.73;;;20.00;1.00;;;;;;5091104;28;20031;-78
2022/07/22 04:23:15;;;;;;;9.18;8.00;;;20.20;1.00;;;;;;5091062;28;20082;-79
2022/07/22 04:25:41;;;;;;;12.13;8.63;;;20.20;1.00;;;;;;5091580;28;20498;-80
2022/07/22 04:28:07;;;;;;;10.75;8.23;;;20.10;1.00;;;;;;5091009;28;20388;-79
2022/07/22 04:30:32;;;;;;;9.55;7.95;;;20.10;1.00;;;;;;5093253;28;20478;-77
2022/07/22 04:32:58;;;;;;;10.63;8.18;;;20.30;1.00;;;;;;5090435;28;20012;-77
2022/07/22 04:35:25;;;;;;;9.50;8.48;;;20.40;1.00;;;;;;5089619;28;20036;-77
2022/07/22 04:37:50;;;;;;;9.90;8.18;;;20.40;1.00;;;;;;5090625;28;20027;-77
2022/07/22 04:40:16;;;;;;;9.40;7.85;;;20.20;1.00;;;;;;5090976;28;20028;-76
2022/07/22 04:42:42;;;;;;;15.10;7.82;;;20.20;1.00;;;;;;5092262;28;20020;-77
2022/07/22 04:45:08;;;;;;;9.13;8.23;;;20.20;1.00;;;;;;5091482;28;20392;-77
2022/07/22 04:47:34;;;;;;;10.30;7.93;;;20.10;1.00;;;;;;5090458;28;20036;-77
2022/07/22 04:49:59;;;;;;;9.10;8.20;;;20.20;1.00;;;;;;5089353;28;20043;-77
2022/07/22 04:52:25;;;;;;;9.13;7.95;;;20.20;1.00;;;;;;5090627;28;20546;-76
2022/07/22 04:54:50;;;;;;;8.98;8.07;;;20.20;1.00;;;;;;5090837;28;20035;-77
2022/07/22 04:57:16;;;;;;;8.70;7.80;;;20.20;1.00;;;;;;5092577;28;20028;-77
2022/07/22 04:59:42;;;;;;;9.32;8.30;;;20.20;1.00;;;;;;5090490;28;20400;-77
2022/07/22 05:02:08;;;;;;;9.35;8.23;;;20.40;1.00;;;;;;5071961;28;20044;-77
2022/07/22 05:04:34;;;;;;;9.25;7.90;;;20.10;1.00;;;;;;5090817;28;20123;-77
2022/07/22 05:06:59;;;;;;;8.32;7.47;;;20.30;1.00;;;;;;5090140;28;20066;-77
2022/07/22 05:09:25;;;;;;;9.70;8.65;;;20.30;1.00;;;;;;5092303;28;20110;-76
2022/07/22 05:11:51;;;;;;;10.68;7.90;;;20.50;1.00;;;;;;5090224;28;20035;-77
2022/07/22 05:14:16;;;;;;;8.55;7.75;;;20.50;1.00;;;;;;5090338;28;20404;-77
2022/07/22 05:16:42;;;;;;;9.02;8.05;;;20.60;1.00;;;;;;5071438;28;20102;-77
2022/07/22 05:19:08;;;;;;;11.43;7.72;;;20.70;1.00;;;;;;5090285;28;20027;-77
2022/07/22 05:21:34;;;;;;;10.02;8.93;;;20.80;1.00;;;;;;5092090;28;20032;-79
2022/07/22 05:23:59;;;;;;;11.02;8.88;;;20.80;1.00;;;;;;5090298;28;20012;-80
2022/07/22 05:26:28;;;;;;;8.98;8.07;;;20.80;1.00;;;;;;5088954;28;20036;-80
2022/07/22 05:28:54;;;;;;;13.43;8.40;;;20.90;1.00;;;;;;5088825;28;20036;-80
2022/07/22 05:31:19;;;;;;;10.30;8.27;;;20.90;1.00;;;;;;5089721;28;20040;-80
2022/07/22 05:33:45;;;;;;;10.13;8.35;;;21.00;1.00;;;;;;5091237;28;20475;-82
2022/07/22 05:36:11;;;;;;;10.02;8.50;;;21.20;1.00;;;;;;5091219;28;20031;-78
2022/07/22 05:38:36;;;;;;;9.07;8.18;;;21.20;1.00;;;;;;5089850;28;20039;-77
2022/07/22 05:41:02;;;;;;;10.93;8.70;;;21.20;1.00;;;;;;5090044;28;20032;-77
2022/07/22 05:43:28;;;;;;;9.70;8.30;;;21.30;1.00;;;;;;5089729;28;20028;-76
2022/07/22 05:45:54;;;;;;;9.13;8.23;;;21.30;1.00;;;;;;5089747;28;20062;-77
2022/07/22 05:48:20;;;;;;;11.30;8.30;;;21.30;1.00;;;;;;5091997;28;20543;-77
2022/07/22 05:50:46;;;;;;;10.93;8.98;;;21.30;1.00;;;;;;5089654;28;20064;-77
2022/07/22 05:53:12;;;;;;;13.60;9.60;;;21.50;1.00;;;;;;5089697;28;20073;-77
2022/07/22 05:55:37;;;;;;;10.13;9.13;;;21.60;1.00;;;;;;5089767;28;20028;-77
2022/07/22 05:58:03;;;;;;;11.35;9.55;;;21.60;1.00;;;;;;5089692;28;20036;-77
2022/07/22 06:00:29;;;;;;;12.40;9.63;;;21.80;1.00;;;;;;5091666;28;20017;-77
2022/07/22 06:02:54;;;;;;;10.68;9.13;;;21.80;1.00;;;;;;5089925;28;20031;-77
2022/07/22 06:05:20;;;;;;;12.20;9.85;;;21.90;1.00;;;;;;5089401;28;20048;-77
2022/07/22 06:07:46;;;;;;;12.27;10.40;;;21.90;1.00;;;;;;5088119;28;20020;-77
2022/07/22 06:10:11;;;;;;;14.50;10.70;;;22.00;1.00;;;;;;5089622;28;20090;-77
2022/07/22 06:12:37;;;;;;;12.35;10.75;;;22.00;1.00;;;;;;5091635;28;20020;-77
2022/07/22 06:15:04;;;;;;;12.20;10.60;;;22.20;1.00;;;;;;5090064;28;20369;-77
2022/07/22 06:17:30;;;;;;;11.32;10.00;;;22.10;1.00;;;;;;5089238;28;20033;-77
2022/07/22 06:19:55;;;;;;;12.75;10.63;;;22.20;1.00;;;;;;5089517;28;20027;-77
2022/07/22 06:22:22;;;;;;;11.95;10.75;;;22.40;1.00;;;;;;5089446;28;20476;-77
2022/07/22 06:24:48;;;;;;;12.02;10.48;;;22.50;1.00;;;;;;5090465;28;20028;-78
2022/07/22 06:27:13;;;;;;;11.20;9.60;;;22.40;1.00;;;;;;5090752;28;20377;-77
2022/07/22 06:29:40;;;;;;;12.82;9.80;;;22.60;1.00;;;;;;5089209;28;20123;-77
2022/07/22 06:32:06;;;;;;;14.48;10.32;;;22.70;1.00;;;;;;5089301;28;20096;-77
2022/07/22 06:34:32;;;;;;;15.00;9.32;;;22.70;1.00;;;;;;5089510;28;20099;-77
2022/07/22 06:36:58;;;;;;;13.13;9.57;;;22.80;1.00;;;;;;5089690;28;20040;-77
2022/07/22 06:39:23;;;;;;;10.30;9.00;;;22.90;1.00;;;;;;5095242;28;20028;-78
2022/07/22 06:41:49;;;;;;;11.75;8.93;;;23.00;1.00;;;;;;5092782;28;20043;-78
2022/07/22 06:44:14;;;;;;;12.90;9.15;;;23.00;1.00;;;;;;5093166;28;20098;-77
2022/07/22 06:46:40;;;;;;;10.80;9.18;;;23.10;1.00;;;;;;5091583;28;20065;-78
2022/07/22 06:49:06;;;;;;;14.93;9.13;;;23.30;1.00;;;;;;5093147;28;20025;-77
2022/07/22 06:51:32;;;;;;;9.23;8.15;;;23.40;1.00;;;;;;5095206;28;20119;-78
2022/07/22 06:53:58;;;;;;;9.85;8.27;;;23.50;1.00;;;;;;5092890;28;20103;-76
2022/07/22 06:56:23;;;;;;;12.00;8.50;;;23.60;1.00;;;;;;5093168;28;20044;-77
2022/07/22 06:58:49;;;;;;;11.18;8.05;;;23.70;1.00;;;;;;5092070;28;20027;-78
2022/07/22 07:01:14;;;;;;;8.70;7.78;;;23.80;1.00;;;;;;5092939;28;20035;-77
2022/07/22 07:03:40;;;;;;;11.82;8.07;;;23.90;1.00;;;;;;5094535;28;20024;-78
2022/07/22 07:06:11;;;;;;;9.25;8.00;;;24.00;1.00;;;;;;5093286;28;20036;-77
2022/07/22 07:08:38;;;;;;;10.02;8.25;;;24.10;1.00;;;;;;5092683;28;20060;-77
2022/07/22 07:11:04;;;;;;;9.25;7.85;;;24.20;1.00;;;;;;5092377;28;20111;-78
2022/07/22 07:13:29;;;;;;;11.05;8.57;;;24.40;1.00;;;;;;5092154;28;20103;-78
2022/07/22 07:15:55;;;;;;;10.35;8.23;;;24.50;1.00;;;;;;5092598;28;20062;-78
2022/07/22 07:18:21;;;;;;;10.85;8.10;;;24.60;1.00;;;;;;5095447;28;20031;-77
2022/07/22 07:20:47;;;;;;;9.82;7.93;;;24.60;1.00;;;;;;5092668;28;20100;-76
2022/07/22 07:23:12;;;;;;;10.25;8.20;;;24.50;1.00;;;;;;5092397;28;20437;-78
2022/07/22 07:25:38;;;;;;;11.85;8.18;;;24.70;1.00;;;;;;5090828;28;20024;-77
2022/07/22 07:28:04;;;;;;;9.07;8.20;;;24.80;1.00;;;;;;5092182;28;20173;-77
2022/07/22 07:30:29;;;;;;;8.27;7.47;;;24.90;1.00;;;;;;5094474;28;20023;-78
2022/07/22 07:32:55;;;;;;;8.35;7.57;;;25.00;1.00;;;;;;5092078;28;20407;-77
2022/07/22 07:35:21;;;;;;;8.20;7.30;;;25.10;1.00;;;;;;5092074;28;20121;-77
2022/07/22 07:37:47;;;;;;;10.15;7.63;;;25.20;1.00;;;;;;5092276;28;20032;-77
2022/07/22 07:40:13;;;;;;;9.85;7.80;;;25.30;1.00;;;;;;5092205;28;20036;-77
2022/07/22 07:42:38;;;;;;;8.73;7.70;;;25.40;1.00;;;;;;5075436;28;20384;-76
2022/07/22 07:45:04;;;;;;;8.68;7.82;;;25.40;1.00;;;;;;5092440;28;20448;-77
2022/07/22 07:47:30;;;;;;;9.50;7.70;;;25.50;1.00;;;;;;5092125;28;20510;-77
2022/07/22 07:49:57;;;;;;;12.50;7.88;;;25.60;1.00;;;;;;5091213;28;20039;-78
2022/07/22 07:52:23;;;;;;;10.07;7.63;;;25.80;1.00;;;;;;5091909;28;20032;-77
2022/07/22 07:54:49;;;;;;;9.90;7.45;;;25.80;1.00;;;;;;5092250;28;20036;-77
2022/07/22 07:57:15;;;;;;;8.82;7.90;;;25.90;1.00;;;;;;5093656;28;20465;-77
2022/07/22 07:59:40;;;;;;;8.82;7.10;;;25.90;1.00;;;;;;5091660;28;20035;-78
2022/07/22 08:02:07;;;;;;;10.18;7.85;;;25.90;1.00;;;;;;5091518;28;20507;-78
2022/07/22 08:04:34;;;;;;;9.98;7.72;;;26.00;1.00;;;;;;5090640;28;20016;-77
2022/07/22 08:07:00;;;;;;;9.68;8.05;;;26.20;1.00;;;;;;5091687;28;20032;-77
2022/07/22 08:09:26;;;;;;;8.73;7.82;;;26.30;1.00;;;;;;5093304;28;20020;-77
2022/07/22 08:11:52;;;;;;;10.00;7.88;;;26.40;1.00;;;;;;5091416;28;20089;-78
2022/07/22 08:14:18;;;;;;;9.88;7.53;;;26.50;1.00;;;;;;5091349;28;20395;-77
2022/07/22 08:16:43;;;;;;;8.85;7.65;;;26.70;1.00;;;;;;5091072;28;20066;-77
2022/07/22 08:19:09;;;;;;;9.00;8.00;;;26.70;1.00;;;;;;5091459;28;20428;-77
2022/07/22 08:21:35;;;;;;;9.80;8.00;;;26.60;1.00;;;;;;5093518;28;20084;-77
2022/07/22 08:24:00;;;;;;;9.30;7.95;;;26.60;1.00;;;;;;5091237;28;20488;-77
2022/07/22 08:26:26;;;;;;;11.32;8.25;;;26.70;1.00;;;;;;5073035;28;20178;-77
2022/07/22 08:28:52;;;;;;;10.82;8.50;;;26.80;1.00;;;;;;5090858;28;20032;-77
2022/07/22 08:31:18;;;;;;;8.85;7.95;;;26.90;1.00;;;;;;5091315;28;20024;-77
2022/07/22 08:33:43;;;;;;;8.55;7.75;;;27.00;1.00;;;;;;5092485;28;20024;-77
2022/07/22 08:36:09;;;;;;;9.77;8.10;;;26.90;1.00;;;;;;5091968;28;20034;-77
2022/07/22 08:38:35;;;;;;;12.52;8.43;;;26.90;1.00;;;;;;5072257;28;20028;-78
2022/07/22 08:41:03;;;;;;;10.52;7.65;;;27.00;1.00;;;;;;5091238;28;20047;-78
2022/07/22 08:43:30;;;;;;;11.32;8.45;;;27.20;1.00;;;;;;5089259;28;20027;-77
2022/07/22 08:45:57;;;;;;;10.95;8.40;;;27.40;1.00;;;;;;5090689;28;20093;-77
2022/07/22 08:48:22;;;;;;;11.68;7.70;;;27.40;1.00;;;;;;5093105;28;20024;-77
2022/07/22 08:50:48;;;;;;;12.48;7.97;;;27.50;1.00;;;;;;5090637;28;20119;-78
2022/07/22 08:53:14;;;;;;;9.43;8.00;;;27.80;1.00;;;;;;5090348;28;20391;-78
2022/07/22 08:55:44;;;;;;;9.40;8.05;;;27.80;1.00;;;;;;5090458;28;20101;-77
2022/07/22 08:58:11;;;;;;;9.35;7.90;;;27.90;1.00;;;;;;5090578;28;20404;-78
2022/07/22 09:00:38;;;;;;;10.25;8.30;;;28.00;1.00;;;;;;5092037;28;20468;-77
2022/07/22 09:03:22;;;;;;;9.88;7.78;;;28.10;1.00;;;;;;5089474;28;20051;-77
2022/07/22 09:05:52;;;;;;;8.00;7.30;;;28.40;1.00;;;;;;5090218;28;20040;-78
2022/07/22 09:08:18;;;;;;;8.13;7.38;;;28.60;1.00;;;;;;5090132;28;20020;-78
2022/07/22 09:10:44;;;;;;;9.10;7.70;;;28.70;1.00;;;;;;5090471;28;20035;-77
2022/07/22 09:13:10;;;;;;;8.93;8.13;;;28.90;1.00;;;;;;5090481;28;20025;-77
2022/07/22 09:15:41;;;;;;;11.40;7.65;;;29.10;1.00;;;;;;5092536;28;20035;-78
2022/07/22 09:18:08;;;;;;;9.18;8.13;;;29.00;1.00;;;;;;5089771;28;20024;-78
2022/07/22 09:20:35;;;;;;;10.65;7.47;;;29.20;1.00;;;;;;5090142;28;20042;-78
2022/07/22 09:23:02;;;;;;;9.18;7.57;;;29.40;1.00;;;;;;5088459;28;20024;-77
2022/07/22 09:25:36;;;;;;;8.13;7.43;;;29.30;1.00;;;;;;5090411;28;20036;-78
2022/07/22 09:28:07;;;;;;;9.10;8.00;;;29.30;1.00;;;;;;5089924;28;20024;-78
2022/07/22 09:30:35;;;;;;;9.10;7.72;;;29.40;1.00;;;;;;5074053;28;20391;-78
2022/07/22 09:33:02;;;;;;;8.57;7.78;;;29.60;1.00;;;;;;5090030;28;20024;-77
2022/07/22 09:35:28;;;;;;;9.95;7.07;;;29.70;1.00;;;;;;5089863;28;20112;-78
2022/07/22 09:37:56;;;;;;;9.27;7.38;;;29.80;1.00;;;;;;5089650;28;20031;-78
2022/07/22 09:40:25;;;;;;;9.90;7.80;;;29.70;1.00;;;;;;5090421;28;20027;-77
2022/07/22 09:43:00;;;;;;;8.57;7.75;;;29.80;1.00;;;;;;5090336;28;20020;-78
2022/07/22 09:45:28;;;;;;;8.63;7.72;;;29.80;1.00;;;;;;5090746;28;20043;-78
2022/07/22 09:47:56;;;;;;;10.07;8.20;;;30.00;1.00;;;;;;5089810;28;20089;-78
2022/07/22 09:50:26;;;;;;;8.05;7.35;;;30.00;1.00;;;;;;5089863;28;20036;-78
2022/07/22 09:52:54;;;;;;;9.02;8.13;;;30.10;1.00;;;;;;5089464;28;20046;-78
2022/07/22 09:55:23;;;;;;;8.85;7.97;;;30.20;1.00;;;;;;5090164;28;20031;-78
2022/07/22 09:57:50;;;;;;;10.35;8.23;;;30.40;1.00;;;;;;5090454;28;20431;-78
2022/07/22 10:00:19;;;;;;;8.98;8.10;;;30.30;1.00;;;;;;5091412;28;20070;-79
2022/07/22 10:02:50;;;;;;;8.80;7.90;;;30.60;1.00;;;;;;5088116;28;20031;-78
2022/07/22 10:05:18;;;;;;;8.30;7.57;;;30.70;1.00;;;;;;5089540;28;20020;-79
2022/07/22 10:07:45;;;;;;;8.23;7.53;;;30.90;1.00;;;;;;5090131;28;20500;-78
2022/07/22 10:10:13;;;;;;;9.52;7.65;;;30.90;1.00;;;;;;5071673;28;20025;-78
2022/07/22 10:12:40;;;;;;;8.60;7.78;;;31.00;1.00;;;;;;5092350;28;20020;-78
2022/07/22 10:15:08;;;;;;;8.63;7.60;;;31.10;1.00;;;;;;5075052;28;20392;-77
2022/07/22 10:17:37;;;;;;;8.23;7.43;;;31.20;1.00;;;;;;5093971;28;20118;-78
2022/07/22 10:20:05;;;;;;;8.55;7.75;;;31.30;1.00;;;;;;5093250;28;20020;-78
2022/07/22 10:22:41;;;;;;;8.55;7.63;;;31.20;1.00;;;;;;5093542;28;20476;-78
2022/07/22 10:25:08;;;;;;;8.57;7.60;;;31.40;1.00;;;;;;5077535;28;20025;-78
2022/07/22 10:27:48;;;;;;;9.20;8.02;;;31.60;1.00;;;;;;5091341;28;20066;-78
2022/07/22 10:30:17;;;;;;;8.63;7.72;;;31.70;1.00;;;;;;5094833;28;20040;-78
2022/07/22 10:32:43;;;;;;;8.90;7.90;;;31.90;1.00;;;;;;5093097;28;20020;-78
2022/07/22 10:35:09;;;;;;;8.27;7.45;;;31.90;1.00;;;;;;5093096;28;20084;-78
2022/07/22 10:37:34;;;;;;;8.23;7.43;;;32.00;1.00;;;;;;5093161;28;20594;-78
2022/07/22 10:40:21;;;;;;;8.20;7.50;;;32.10;1.00;;;;;;5093466;28;20024;-78
2022/07/22 10:42:56;;;;;;;7.78;6.93;;;32.10;1.00;;;;;;5091163;28;20028;-78
2022/07/22 10:45:26;;;;;;;7.35;6.68;;;32.30;1.00;;;;;;5093419;28;20016;-78
2022/07/22 10:47:52;;;;;;;8.30;6.80;;;32.60;1.00;;;;;;5093227;28;20039;-78
2022/07/22 10:50:43;;;;;;;9.00;7.70;;;32.70;1.00;;;;;;5092831;28;20035;-78
2022/07/22 10:53:13;;;;;;;7.78;7.07;;;32.20;1.00;;;;;;5093209;28;20016;-78
2022/07/22 10:56:13;;;;;;;8.48;7.30;;;32.30;1.00;;;;;;5093028;28;20032;-78
2022/07/22 10:58:45;;;;;;;7.97;6.82;;;32.40;1.00;;;;;;5081200;28;20020;-78
2022/07/22 11:01:13;;;;;;;9.73;8.02;;;32.80;1.00;;;;;;5077414;28;20025;-78
2022/07/22 11:03:41;;;;;;;8.27;7.45;;;32.70;1.00;;;;;;5094781;28;20480;-77
2022/07/22 11:06:33;;;;;;;8.40;7.53;;;32.60;1.00;;;;;;5091640;28;20080;-78
2022/07/22 11:09:01;;;;;;;8.43;7.30;;;32.70;1.00;;;;;;5088202;28;20048;-78
2022/07/22 11:11:41;;;;;;;8.02;7.15;;;33.00;1.00;;;;;;5092543;28;20017;-78
2022/07/22 11:14:27;;;;;;;9.40;7.32;;;33.10;1.00;;;;;;5092556;28;20024;-78
2022/07/22 11:16:55;;;;;;;8.25;7.40;;;33.30;1.00;;;;;;5092349;28;20028;-79
2022/07/22 11:19:27;;;;;;;12.05;7.88;;;33.40;1.00;;;;;;5090868;28;20032;-79
2022/07/22 11:21:59;;;;;;;7.90;7.20;;;33.40;1.00;;;;;;5093167;28;20112;-78
2022/07/22 11:24:26;;;;;;;8.43;7.50;;;33.50;1.00;;;;;;5091826;28;20125;-78
2022/07/22 11:26:53;;;;;;;8.82;7.45;;;33.60;1.00;;;;;;5092256;28;20119;-78
2022/07/22 11:29:29;;;;;;;9.63;7.47;;;33.70;1.00;;;;;;5092017;28;20085;-78
2022/07/22 11:31:57;;;;;;;8.15;7.35;;;33.80;1.00;;;;;;5092189;28;20024;-79
2022/07/22 11:34:25;;;;;;;8.27;7.43;;;33.90;1.00;;;;;;5092404;28;20476;-78
2022/07/22 11:36:52;;;;;;;8.50;7.53;;;34.10;1.00;;;;;;5092668;28;20027;-78
2022/07/22 11:39:26;;;;;;;10.75;7.47;;;34.30;1.00;;;;;;5093973;28;20024;-78
2022/07/22 11:41:53;;;;;;;8.43;7.30;;;34.60;1.00;;;;;;5091975;28;20036;-79
2022/07/22 11:44:21;;;;;;;7.85;7.15;;;35.30;1.00;;;;;;5091964;28;20028;-79
2022/07/22 11:46:48;;;;;;;9.77;6.88;;;36.70;1.00;;;;;;5091652;28;20028;-79
2022/07/22 11:49:15;;;;;;;7.93;6.82;;;39.00;1.00;;;;;;5092420;28;20089;-78
2022/07/22 11:51:41;;;;;;;7.95;7.18;;;40.90;1.00;;;;;;5093524;28;20050;-78
2022/07/22 11:54:06;;;;;;;8.60;6.97;;;41.50;1.00;;;;;;5092455;28;20464;-79
2022/07/22 11:56:33;;;;;;;8.30;7.50;;;42.40;1.00;;;;;;5091658;28;20036;-79
2022/07/22 11:59:02;;;;;;;8.77;7.30;;;42.90;1.00;;;;;;5090284;28;20082;-79
2022/07/22 12:01:29;;;;;;;7.90;7.10;;;43.20;1.00;;;;;;5091652;28;20039;-79
2022/07/22 12:03:57;;;;;;;8.43;7.25;;;43.80;1.00;;;;;;5091660;28;20024;-79
2022/07/22 12:06:24;;;;;;;7.82;7.15;;;44.20;1.00;;;;;;5094100;28;20126;-79
2022/07/22 12:08:53;;;;;;;10.98;7.07;;;44.30;1.00;;;;;;5091383;28;20032;-79
2022/07/22 12:11:21;;;;;;;8.93;6.93;;;45.10;1.00;;;;;;5091632;28;20020;-79
2022/07/22 12:13:50;;;;;;;8.25;7.53;;;43.70;1.00;;;;;;5091627;28;20024;-79
2022/07/22 12:16:19;;;;;;;8.20;7.32;;;42.70;1.00;;;;;;5091126;28;20027;-79
2022/07/22 12:19:00;;;;;;;7.55;6.85;;;43.90;1.00;;;;;;5092749;28;20024;-78
2022/07/22 12:21:28;;;;;;;8.05;7.13;;;43.90;1.00;;;;;;5092345;28;20035;-79
2022/07/22 12:24:00;;;;;;;7.60;6.88;;;42.80;1.00;;;;;;5090855;28;20046;-79
2022/07/22 12:26:47;;;;;;;7.90;7.13;;;44.90;1.00;;;;;;5091120;28;20040;-79
2022/07/22 12:29:15;;;;;;;8.57;6.95;;;45.00;1.00;;;;;;5098007;28;20039;-77
2022/07/22 12:31:49;;;;;;;7.57;6.97;;;46.50;1.00;;;;;;5090830;28;20115;-80
2022/07/22 12:34:16;;;;;;;8.55;6.93;;;45.80;1.00;;;;;;5074641;28;20120;-80
2022/07/22 12:36:46;;;;;;;7.40;6.70;;;47.00;1.00;;;;;;5104186;28;20103;-79
2022/07/22 12:39:17;;;;;;;7.85;7.15;;;46.80;1.00;;;;;;5094071;28;20036;-79
2022/07/22 12:41:49;;;;;;;7.57;7.00;;;47.90;1.00;;;;;;5090792;28;20458;-80
2022/07/22 12:44:22;;;;;;;7.28;6.57;;;46.90;1.00;;;;;;5090620;28;20115;-79
2022/07/22 12:46:52;;;;;;;7.18;6.57;;;48.20;1.00;;;;;;5089213;28;20036;-77
2022/07/22 12:49:19;;;;;;;8.05;7.30;;;48.80;1.00;;;;;;5090616;28;20090;-79
2022/07/22 12:52:08;;;;;;;7.53;6.78;;;47.70;1.00;;;;;;5092208;28;20035;-79
2022/07/22 12:54:35;;;;;;;7.57;6.88;;;46.20;1.00;;;;;;5079969;28;20040;-78
2022/07/22 12:57:03;;;;;;;7.00;6.50;;;45.40;1.00;;;;;;5090600;28;20028;-79